sensor_id;sensor_type;location;lat;lon;timestamp;temperature;humidity
28614;DHT22;15806;53.548;9.964;2023-03-01T00:00:34;2.70;1.00
28614;DHT22;15806;53.548;9.964;2023-03-01T00:02:16;2.80;1.00
28614;DHT22;15806;53.548;9.964;2023-03-01T00:03:58;2.70;1.00
28614;DHT22;15806;53.548;9.964;2023-03-01T00:05:46;2.60;1.00
28614;DHT22;15806;53.548;9.964;2023-03-01T00:07:27;2.60;1.00
28614;DHT22;15806;53.548;9.964;2023-03-01T00:09:07;2.60;1.00
28614;DHT22;15806;53.548;9.964;2023-03-01T00:10:48;2.60;1.00
28614;DHT22;15806;53.548;9.964;2023-03-01T00:12:28;2.50;1.00
28614;DHT22;15806;53.548;9.964;2023-03-01T00:14:09;2.50;1.00
28614;DHT22;15806;53.548;9.964;2023-03-01T00:15:49;2.50;1.00
28614;DHT22;15806;53.548;9.964;2023-03-01T00:17:30;2.40;1.00
28614;DHT22;15806;53.548;9.964;2023-03-01T00:19:18;2.50;1.00
28614;DHT22;15806;53.548;9.964;2023-03-01T00:20:59;2.50;1.00
28614;DHT22;15806;53.548;9.964;2023-03-01T00:22:39;2.60;1.00
28614;DHT22;15806;53.548;9.964;2023-03-01T00:24:20;2.60;1.00
28614;DHT22;15806;53.548;9.964;2023-03-01T00:26:01;2.60;1.00
28614;DHT22;15806;53.548;9.964;2023-03-01T00:27:41;2.50;1.00
28614;DHT22;15806;53.548;9.964;2023-03-01T00:29:25;2.50;1.00
28614;DHT22;15806;53.548;9.964;2023-03-01T00:31:21;2.50;1.00
28614;DHT22;15806;53.548;9.964;2023-03-01T00:33:02;2.50;1.00
28614;DHT22;15806;53.548;9.964;2023-03-01T00:34:42;2.60;1.00
28614;DHT22;15806;53.548;9.964;2023-03-01T00:36:25;2.50;1.00
28614;DHT22;15806;53.548;9.964;2023-03-01T00:38:05;2.40;61.30
28614;DHT22;15806;53.548;9.964;2023-03-01T00:39:46;2.40;99.90
28614;DHT22;15806;53.548;9.964;2023-03-01T00:41:27;2.30;99.90
28614;DHT22;15806;53.548;9.964;2023-03-01T00:43:08;2.30;99.90
28614;DHT22;15806;53.548;9.964;2023-03-01T00:44:48;2.30;99.90
28614;DHT22;15806;53.548;9.964;2023-03-01T00:46:29;2.30;99.90
28614;DHT22;15806;53.548;9.964;2023-03-01T00:48:09;2.20;50.10
28614;DHT22;15806;53.548;9.964;2023-03-01T00:49:50;2.30;1.00
28614;DHT22;15806;53.548;9.964;2023-03-01T00:51:31;2.30;1.00
28614;DHT22;15806;53.548;9.964;2023-03-01T00:53:11;2.30;1.00
28614;DHT22;15806;53.548;9.964;2023-03-01T00:54:52;2.30;1.00
28614;DHT22;15806;53.548;9.964;2023-03-01T00:56:33;2.30;1.00
28614;DHT22;15806;53.548;9.964;2023-03-01T00:58:13;2.30;1.00
28614;DHT22;15806;53.548;9.964;2023-03-01T00:59:54;2.20;1.00
28614;DHT22;15806;53.548;9.964;2023-03-01T01:01:34;2.20;68.60
28614;DHT22;15806;53.548;9.964;2023-03-01T01:03:15;2.20;99.90
28614;DHT22;15806;53.548;9.964;2023-03-01T01:04:56;2.10;99.90
28614;DHT22;15806;53.548;9.964;2023-03-01T01:06:42;2.10;60.50
28614;DHT22;15806;53.548;9.964;2023-03-01T01:08:22;2.00;12.80
28614;DHT22;15806;53.548;9.964;2023-03-01T01:10:03;2.00;1.00
28614;DHT22;15806;53.548;9.964;2023-03-01T01:11:46;2.10;1.00
28614;DHT22;15806;53.548;9.964;2023-03-01T01:13:27;2.10;1.00
28614;DHT22;15806;53.548;9.964;2023-03-01T01:15:08;2.10;1.00
28614;DHT22;15806;53.548;9.964;2023-03-01T01:16:48;2.10;1.00
28614;DHT22;15806;53.548;9.964;2023-03-01T01:18:29;2.10;1.00
28614;DHT22;15806;53.548;9.964;2023-03-01T01:20:10;2.10;1.00
28614;DHT22;15806;53.548;9.964;2023-03-01T01:21:51;2.10;1.00
28614;DHT22;15806;53.548;9.964;2023-03-01T01:23:32;2.20;1.00
28614;DHT22;15806;53.548;9.964;2023-03-01T01:25:12;2.30;1.00
28614;DHT22;15806;53.548;9.964;2023-03-01T01:26:53;2.40;1.00
28614;DHT22;15806;53.548;9.964;2023-03-01T01:28:34;2.30;1.00
28614;DHT22;15806;53.548;9.964;2023-03-01T01:30:14;2.30;1.00
28614;DHT22;15806;53.548;9.964;2023-03-01T01:31:55;2.30;1.00
28614;DHT22;15806;53.548;9.964;2023-03-01T01:33:35;2.30;1.00
28614;DHT22;15806;53.548;9.964;2023-03-01T01:35:16;2.40;1.00
28614;DHT22;15806;53.548;9.964;2023-03-01T01:36:57;2.40;1.00
28614;DHT22;15806;53.548;9.964;2023-03-01T01:38:38;2.40;1.00
28614;DHT22;15806;53.548;9.964;2023-03-01T01:40:19;2.40;1.00
28614;DHT22;15806;53.548;9.964;2023-03-01T01:42:00;2.40;1.00
28614;DHT22;15806;53.548;9.964;2023-03-01T01:43:45;2.30;1.00
28614;DHT22;15806;53.548;9.964;2023-03-01T01:45:35;2.30;1.00
28614;DHT22;15806;53.548;9.964;2023-03-01T01:47:18;2.20;1.00
28614;DHT22;15806;53.548;9.964;2023-03-01T01:49:03;2.20;1.00
28614;DHT22;15806;53.548;9.964;2023-03-01T01:50:57;2.10;1.00
28614;DHT22;15806;53.548;9.964;2023-03-01T01:52:39;2.00;1.00
28614;DHT22;15806;53.548;9.964;2023-03-01T01:54:26;2.00;1.00
28614;DHT22;15806;53.548;9.964;2023-03-01T01:56:09;2.00;1.00
28614;DHT22;15806;53.548;9.964;2023-03-01T01:57:54;2.00;1.00
28614;DHT22;15806;53.548;9.964;2023-03-01T01:59:37;2.00;1.00
28614;DHT22;15806;53.548;9.964;2023-03-01T02:01:18;2.00;1.00
28614;DHT22;15806;53.548;9.964;2023-03-01T02:03:03;2.00;1.00
28614;DHT22;15806;53.548;9.964;2023-03-01T02:04:45;2.10;1.00
28614;DHT22;15806;53.548;9.964;2023-03-01T02:06:31;2.10;1.00
28614;DHT22;15806;53.548;9.964;2023-03-01T02:08:13;2.10;1.00
28614;DHT22;15806;53.548;9.964;2023-03-01T02:09:55;2.10;1.00
28614;DHT22;15806;53.548;9.964;2023-03-01T02:11:36;2.10;1.00
28614;DHT22;15806;53.548;9.964;2023-03-01T02:13:17;2.10;1.00
28614;DHT22;15806;53.548;9.964;2023-03-01T02:14:57;2.20;1.00
28614;DHT22;15806;53.548;9.964;2023-03-01T02:16:38;2.20;1.00
28614;DHT22;15806;53.548;9.964;2023-03-01T02:18:20;2.20;1.00
28614;DHT22;15806;53.548;9.964;2023-03-01T02:20:37;2.20;1.00
28614;DHT22;15806;53.548;9.964;2023-03-01T02:22:27;2.20;1.00
28614;DHT22;15806;53.548;9.964;2023-03-01T02:24:23;2.20;1.00
28614;DHT22;15806;53.548;9.964;2023-03-01T02:26:40;2.10;1.00
28614;DHT22;15806;53.548;9.964;2023-03-01T02:30:10;2.00;1.00
28614;DHT22;15806;53.548;9.964;2023-03-01T02:31:52;2.00;1.00
28614;DHT22;15806;53.548;9.964;2023-03-01T02:33:36;2.00;1.00
28614;DHT22;15806;53.548;9.964;2023-03-01T02:35:18;1.90;1.00
28614;DHT22;15806;53.548;9.964;2023-03-01T02:37:13;1.90;1.00
28614;DHT22;15806;53.548;9.964;2023-03-01T02:38:57;1.90;1.00
28614;DHT22;15806;53.548;9.964;2023-03-01T02:40:38;1.90;1.00
28614;DHT22;15806;53.548;9.964;2023-03-01T02:42:21;1.90;1.00
28614;DHT22;15806;53.548;9.964;2023-03-01T02:44:04;1.80;1.00
28614;DHT22;15806;53.548;9.964;2023-03-01T02:45:50;1.80;1.00
28614;DHT22;15806;53.548;9.964;2023-03-01T02:47:30;1.80;1.00
28614;DHT22;15806;53.548;9.964;2023-03-01T02:53:13;1.80;1.00
28614;DHT22;15806;53.548;9.964;2023-03-01T02:55:12;1.80;1.00
28614;DHT22;15806;53.548;9.964;2023-03-01T02:56:53;1.70;1.00
28614;DHT22;15806;53.548;9.964;2023-03-01T02:58:34;1.70;1.00
28614;DHT22;15806;53.548;9.964;2023-03-01T03:00:21;1.70;1.00
28614;DHT22;15806;53.548;9.964;2023-03-01T03:02:01;1.70;1.00
28614;DHT22;15806;53.548;9.964;2023-03-01T03:03:42;1.70;1.00
28614;DHT22;15806;53.548;9.964;2023-03-01T03:05:26;1.70;1.00
28614;DHT22;15806;53.548;9.964;2023-03-01T03:07:06;1.70;1.00
28614;DHT22;15806;53.548;9.964;2023-03-01T03:08:47;1.70;1.00
28614;DHT22;15806;53.548;9.964;2023-03-01T03:10:33;1.70;1.00
28614;DHT22;15806;53.548;9.964;2023-03-01T03:12:15;1.70;1.00
28614;DHT22;15806;53.548;9.964;2023-03-01T03:13:55;1.70;1.00
28614;DHT22;15806;53.548;9.964;2023-03-01T03:15:36;1.70;1.00
28614;DHT22;15806;53.548;9.964;2023-03-01T03:17:17;1.70;1.00
28614;DHT22;15806;53.548;9.964;2023-03-01T03:18:57;1.60;1.00
28614;DHT22;15806;53.548;9.964;2023-03-01T03:20:40;1.50;1.00
28614;DHT22;15806;53.548;9.964;2023-03-01T03:22:21;1.50;1.00
28614;DHT22;15806;53.548;9.964;2023-03-01T03:24:02;1.50;1.00
28614;DHT22;15806;53.548;9.964;2023-03-01T03:25:42;1.50;1.00
28614;DHT22;15806;53.548;9.964;2023-03-01T03:27:23;1.50;1.00
28614;DHT22;15806;53.548;9.964;2023-03-01T03:29:03;1.50;1.00
28614;DHT22;15806;53.548;9.964;2023-03-01T03:30:56;1.50;1.00
28614;DHT22;15806;53.548;9.964;2023-03-01T03:32:51;1.40;1.00
28614;DHT22;15806;53.548;9.964;2023-03-01T03:34:40;1.40;1.00
28614;DHT22;15806;53.548;9.964;2023-03-01T03:36:23;1.40;1.00
28614;DHT22;15806;53.548;9.964;2023-03-01T03:38:06;1.40;1.00
28614;DHT22;15806;53.548;9.964;2023-03-01T03:39:46;1.40;1.00
28614;DHT22;15806;53.548;9.964;2023-03-01T03:41:27;1.50;1.00
28614;DHT22;15806;53.548;9.964;2023-03-01T03:43:21;1.50;1.00
28614;DHT22;15806;53.548;9.964;2023-03-01T03:45:02;1.50;1.00
28614;DHT22;15806;53.548;9.964;2023-03-01T03:46:43;1.60;1.00
28614;DHT22;15806;53.548;9.964;2023-03-01T03:48:24;1.60;1.00
28614;DHT22;15806;53.548;9.964;2023-03-01T03:50:05;1.60;1.00
28614;DHT22;15806;53.548;9.964;2023-03-01T03:51:45;1.70;1.00
28614;DHT22;15806;53.548;9.964;2023-03-01T03:53:28;1.70;1.00
28614;DHT22;15806;53.548;9.964;2023-03-01T03:55:10;1.70;1.00
28614;DHT22;15806;53.548;9.964;2023-03-01T03:56:51;1.80;1.00
28614;DHT22;15806;53.548;9.964;2023-03-01T03:58:31;1.80;1.00
28614;DHT22;15806;53.548;9.964;2023-03-01T04:00:12;1.90;1.00
28614;DHT22;15806;53.548;9.964;2023-03-01T04:01:53;1.90;1.00
28614;DHT22;15806;53.548;9.964;2023-03-01T04:03:34;1.90;1.00
28614;DHT22;15806;53.548;9.964;2023-03-01T04:05:16;1.80;1.00
28614;DHT22;15806;53.548;9.964;2023-03-01T04:06:57;1.80;1.00
28614;DHT22;15806;53.548;9.964;2023-03-01T04:08:38;1.80;1.00
28614;DHT22;15806;53.548;9.964;2023-03-01T04:10:18;1.70;1.00
28614;DHT22;15806;53.548;9.964;2023-03-01T04:11:59;1.70;1.00
28614;DHT22;15806;53.548;9.964;2023-03-01T04:13:39;1.70;1.00
28614;DHT22;15806;53.548;9.964;2023-03-01T04:15:20;1.70;1.00
28614;DHT22;15806;53.548;9.964;2023-03-01T04:17:00;1.70;1.00
28614;DHT22;15806;53.548;9.964;2023-03-01T04:18:41;1.70;1.00
28614;DHT22;15806;53.548;9.964;2023-03-01T04:20:24;1.80;1.00
28614;DHT22;15806;53.548;9.964;2023-03-01T04:22:05;1.70;1.00
28614;DHT22;15806;53.548;9.964;2023-03-01T04:23:45;1.80;1.00
28614;DHT22;15806;53.548;9.964;2023-03-01T04:25:26;1.80;1.00
28614;DHT22;15806;53.548;9.964;2023-03-01T04:27:06;1.80;1.00
28614;DHT22;15806;53.548;9.964;2023-03-01T04:28:47;1.80;1.00
28614;DHT22;15806;53.548;9.964;2023-03-01T04:30:28;1.80;1.00
28614;DHT22;15806;53.548;9.964;2023-03-01T04:32:08;1.80;1.00
28614;DHT22;15806;53.548;9.964;2023-03-01T04:33:54;1.80;1.00
28614;DHT22;15806;53.548;9.964;2023-03-01T04:35:36;1.70;1.00
28614;DHT22;15806;53.548;9.964;2023-03-01T04:37:16;1.70;1.00
28614;DHT22;15806;53.548;9.964;2023-03-01T04:38:57;1.70;1.00
28614;DHT22;15806;53.548;9.964;2023-03-01T04:40:38;1.70;1.00
28614;DHT22;15806;53.548;9.964;2023-03-01T04:42:19;1.60;1.00
28614;DHT22;15806;53.548;9.964;2023-03-01T04:44:00;1.70;1.00
28614;DHT22;15806;53.548;9.964;2023-03-01T04:45:40;1.80;1.00
28614;DHT22;15806;53.548;9.964;2023-03-01T04:47:21;1.80;1.00
28614;DHT22;15806;53.548;9.964;2023-03-01T04:49:02;1.70;1.00
28614;DHT22;15806;53.548;9.964;2023-03-01T04:50:43;1.70;1.00
28614;DHT22;15806;53.548;9.964;2023-03-01T04:52:23;1.70;1.00
28614;DHT22;15806;53.548;9.964;2023-03-01T04:54:04;1.80;1.00
28614;DHT22;15806;53.548;9.964;2023-03-01T04:55:44;1.90;1.00
28614;DHT22;15806;53.548;9.964;2023-03-01T04:57:25;1.90;1.00
28614;DHT22;15806;53.548;9.964;2023-03-01T04:59:05;2.00;1.00
28614;DHT22;15806;53.548;9.964;2023-03-01T05:00:46;1.90;1.00
28614;DHT22;15806;53.548;9.964;2023-03-01T05:02:26;1.90;1.00
28614;DHT22;15806;53.548;9.964;2023-03-01T05:04:07;1.80;1.00
28614;DHT22;15806;53.548;9.964;2023-03-01T05:05:49;1.80;1.00
28614;DHT22;15806;53.548;9.964;2023-03-01T05:07:30;1.80;1.00
28614;DHT22;15806;53.548;9.964;2023-03-01T05:09:11;1.80;1.00
28614;DHT22;15806;53.548;9.964;2023-03-01T05:10:52;1.80;1.00
28614;DHT22;15806;53.548;9.964;2023-03-01T05:12:33;1.80;1.00
28614;DHT22;15806;53.548;9.964;2023-03-01T05:14:13;1.90;1.00
28614;DHT22;15806;53.548;9.964;2023-03-01T05:15:59;1.90;1.00
28614;DHT22;15806;53.548;9.964;2023-03-01T05:17:39;1.90;1.00
28614;DHT22;15806;53.548;9.964;2023-03-01T05:19:20;2.00;1.00
28614;DHT22;15806;53.548;9.964;2023-03-01T05:21:10;2.00;1.00
28614;DHT22;15806;53.548;9.964;2023-03-01T05:22:52;2.00;1.00
28614;DHT22;15806;53.548;9.964;2023-03-01T05:24:35;2.00;1.00
28614;DHT22;15806;53.548;9.964;2023-03-01T05:26:18;2.00;1.00
28614;DHT22;15806;53.548;9.964;2023-03-01T05:28:00;2.00;1.00
28614;DHT22;15806;53.548;9.964;2023-03-01T05:29:41;2.00;1.00
28614;DHT22;15806;53.548;9.964;2023-03-01T05:31:21;2.00;1.00
28614;DHT22;15806;53.548;9.964;2023-03-01T05:33:02;2.10;1.00
28614;DHT22;15806;53.548;9.964;2023-03-01T05:34:43;2.10;1.00
28614;DHT22;15806;53.548;9.964;2023-03-01T05:36:23;2.00;1.00
28614;DHT22;15806;53.548;9.964;2023-03-01T05:38:04;2.10;1.00
28614;DHT22;15806;53.548;9.964;2023-03-01T05:39:44;2.10;1.00
28614;DHT22;15806;53.548;9.964;2023-03-01T05:41:25;2.20;1.00
28614;DHT22;15806;53.548;9.964;2023-03-01T05:43:05;2.10;1.00
28614;DHT22;15806;53.548;9.964;2023-03-01T05:44:46;2.10;1.00
28614;DHT22;15806;53.548;9.964;2023-03-01T05:46:26;2.10;1.00
28614;DHT22;15806;53.548;9.964;2023-03-01T05:48:08;2.10;1.00
28614;DHT22;15806;53.548;9.964;2023-03-01T05:49:49;2.00;1.00
28614;DHT22;15806;53.548;9.964;2023-03-01T05:51:29;2.00;1.00
28614;DHT22;15806;53.548;9.964;2023-03-01T05:53:13;2.00;1.00
28614;DHT22;15806;53.548;9.964;2023-03-01T05:54:53;2.10;1.00
28614;DHT22;15806;53.548;9.964;2023-03-01T05:56:35;2.10;1.00
28614;DHT22;15806;53.548;9.964;2023-03-01T05:58:19;2.10;1.00
28614;DHT22;15806;53.548;9.964;2023-03-01T06:00:00;2.10;1.00
28614;DHT22;15806;53.548;9.964;2023-03-01T06:01:40;2.20;1.00
28614;DHT22;15806;53.548;9.964;2023-03-01T06:03:21;2.20;1.00
28614;DHT22;15806;53.548;9.964;2023-03-01T06:05:01;2.20;1.00
28614;DHT22;15806;53.548;9.964;2023-03-01T06:06:42;2.20;1.00
28614;DHT22;15806;53.548;9.964;2023-03-01T06:08:23;2.20;1.00
28614;DHT22;15806;53.548;9.964;2023-03-01T06:10:04;2.20;1.00
28614;DHT22;15806;53.548;9.964;2023-03-01T06:11:44;2.20;1.00
28614;DHT22;15806;53.548;9.964;2023-03-01T06:13:25;2.20;1.00
28614;DHT22;15806;53.548;9.964;2023-03-01T06:15:07;2.20;1.00
28614;DHT22;15806;53.548;9.964;2023-03-01T06:16:47;2.10;1.00
28614;DHT22;15806;53.548;9.964;2023-03-01T06:18:28;2.00;1.00
28614;DHT22;15806;53.548;9.964;2023-03-01T06:20:17;2.00;1.00
28614;DHT22;15806;53.548;9.964;2023-03-01T06:21:58;2.00;1.00
28614;DHT22;15806;53.548;9.964;2023-03-01T06:23:39;2.00;1.00
28614;DHT22;15806;53.548;9.964;2023-03-01T06:25:21;2.00;7.10
28614;DHT22;15806;53.548;9.964;2023-03-01T06:27:02;2.00;20.40
28614;DHT22;15806;53.548;9.964;2023-03-01T06:28:42;1.90;42.60
28614;DHT22;15806;53.548;9.964;2023-03-01T06:30:24;1.90;51.00
28614;DHT22;15806;53.548;9.964;2023-03-01T06:32:05;2.00;61.30
28614;DHT22;15806;53.548;9.964;2023-03-01T06:33:46;2.00;57.00
28614;DHT22;15806;53.548;9.964;2023-03-01T06:35:26;2.10;57.10
28614;DHT22;15806;53.548;9.964;2023-03-01T06:37:07;2.10;42.80
28614;DHT22;15806;53.548;9.964;2023-03-01T06:38:48;2.00;42.70
28614;DHT22;15806;53.548;9.964;2023-03-01T06:40:29;2.10;43.40
28614;DHT22;15806;53.548;9.964;2023-03-01T06:42:10;2.00;30.20
28614;DHT22;15806;53.548;9.964;2023-03-01T06:43:51;2.00;43.20
28614;DHT22;15806;53.548;9.964;2023-03-01T06:45:31;2.00;61.70
28614;DHT22;15806;53.548;9.964;2023-03-01T06:47:12;2.10;82.20
28614;DHT22;15806;53.548;9.964;2023-03-01T06:48:52;2.10;80.50
28614;DHT22;15806;53.548;9.964;2023-03-01T06:50:34;2.10;89.00
28614;DHT22;15806;53.548;9.964;2023-03-01T06:52:15;2.10;67.10
28614;DHT22;15806;53.548;9.964;2023-03-01T06:53:55;2.10;42.80
28614;DHT22;15806;53.548;9.964;2023-03-01T06:55:36;2.10;25.70
28614;DHT22;15806;53.548;9.964;2023-03-01T06:57:16;2.10;27.80
28614;DHT22;15806;53.548;9.964;2023-03-01T06:58:57;2.20;22.80
28614;DHT22;15806;53.548;9.964;2023-03-01T07:00:38;2.30;13.30
28614;DHT22;15806;53.548;9.964;2023-03-01T07:02:19;2.30;3.40
28614;DHT22;15806;53.548;9.964;2023-03-01T07:03:59;2.40;1.00
28614;DHT22;15806;53.548;9.964;2023-03-01T07:05:40;2.40;1.00
28614;DHT22;15806;53.548;9.964;2023-03-01T07:07:20;2.50;1.00
28614;DHT22;15806;53.548;9.964;2023-03-01T07:09:01;2.60;1.00
28614;DHT22;15806;53.548;9.964;2023-03-01T07:10:41;2.70;1.00
28614;DHT22;15806;53.548;9.964;2023-03-01T07:12:22;2.70;1.00
28614;DHT22;15806;53.548;9.964;2023-03-01T07:14:02;2.70;1.00
28614;DHT22;15806;53.548;9.964;2023-03-01T07:15:43;2.80;1.00
28614;DHT22;15806;53.548;9.964;2023-03-01T07:17:23;2.90;1.00
28614;DHT22;15806;53.548;9.964;2023-03-01T07:19:04;3.00;1.00
28614;DHT22;15806;53.548;9.964;2023-03-01T07:20:44;3.00;1.00
28614;DHT22;15806;53.548;9.964;2023-03-01T07:22:25;3.10;1.00
28614;DHT22;15806;53.548;9.964;2023-03-01T07:24:07;3.10;1.00
28614;DHT22;15806;53.548;9.964;2023-03-01T07:25:54;3.20;1.00
28614;DHT22;15806;53.548;9.964;2023-03-01T07:27:35;3.20;1.00
28614;DHT22;15806;53.548;9.964;2023-03-01T07:29:15;3.20;1.00
28614;DHT22;15806;53.548;9.964;2023-03-01T07:31:04;3.30;1.00
28614;DHT22;15806;53.548;9.964;2023-03-01T07:32:44;3.30;1.00
28614;DHT22;15806;53.548;9.964;2023-03-01T07:34:25;3.40;1.00
28614;DHT22;15806;53.548;9.964;2023-03-01T07:36:06;3.40;1.00
28614;DHT22;15806;53.548;9.964;2023-03-01T07:37:47;3.40;1.00
28614;DHT22;15806;53.548;9.964;2023-03-01T07:39:27;3.40;1.00
28614;DHT22;15806;53.548;9.964;2023-03-01T07:41:08;3.50;1.00
28614;DHT22;15806;53.548;9.964;2023-03-01T07:42:48;3.50;1.00
28614;DHT22;15806;53.548;9.964;2023-03-01T07:44:29;3.50;1.00
28614;DHT22;15806;53.548;9.964;2023-03-01T07:46:10;3.60;1.00
28614;DHT22;15806;53.548;9.964;2023-03-01T07:47:52;3.60;1.00
28614;DHT22;15806;53.548;9.964;2023-03-01T07:49:32;3.70;1.00
28614;DHT22;15806;53.548;9.964;2023-03-01T07:51:13;3.70;1.00
28614;DHT22;15806;53.548;9.964;2023-03-01T07:52:54;3.70;1.00
28614;DHT22;15806;53.548;9.964;2023-03-01T07:54:35;3.80;1.00
28614;DHT22;15806;53.548;9.964;2023-03-01T07:56:16;3.90;1.00
28614;DHT22;15806;53.548;9.964;2023-03-01T07:57:56;3.90;1.00
28614;DHT22;15806;53.548;9.964;2023-03-01T07:59:37;3.90;1.00
28614;DHT22;15806;53.548;9.964;2023-03-01T08:01:19;3.90;1.00
28614;DHT22;15806;53.548;9.964;2023-03-01T08:03:01;3.90;1.00
28614;DHT22;15806;53.548;9.964;2023-03-01T08:04:42;3.90;1.00
28614;DHT22;15806;53.548;9.964;2023-03-01T08:06:22;3.90;1.00
28614;DHT22;15806;53.548;9.964;2023-03-01T08:08:04;4.00;1.00
28614;DHT22;15806;53.548;9.964;2023-03-01T08:09:44;4.00;1.00
28614;DHT22;15806;53.548;9.964;2023-03-01T08:11:25;4.10;1.00
28614;DHT22;15806;53.548;9.964;2023-03-01T08:13:05;4.10;1.00
28614;DHT22;15806;53.548;9.964;2023-03-01T08:14:46;4.20;1.00
28614;DHT22;15806;53.548;9.964;2023-03-01T08:16:26;4.20;1.00
28614;DHT22;15806;53.548;9.964;2023-03-01T08:18:07;4.20;1.00
28614;DHT22;15806;53.548;9.964;2023-03-01T08:19:47;4.20;1.00
28614;DHT22;15806;53.548;9.964;2023-03-01T08:21:28;4.20;1.00
28614;DHT22;15806;53.548;9.964;2023-03-01T08:23:08;4.20;1.00
28614;DHT22;15806;53.548;9.964;2023-03-01T08:24:49;4.20;1.00
28614;DHT22;15806;53.548;9.964;2023-03-01T08:26:30;4.30;1.00
28614;DHT22;15806;53.548;9.964;2023-03-01T08:28:10;4.30;1.00
28614;DHT22;15806;53.548;9.964;2023-03-01T08:29:51;4.30;1.00
28614;DHT22;15806;53.548;9.964;2023-03-01T08:31:35;4.10;1.00
28614;DHT22;15806;53.548;9.964;2023-03-01T08:33:15;4.20;1.00
28614;DHT22;15806;53.548;9.964;2023-03-01T08:34:56;4.10;1.00
28614;DHT22;15806;53.548;9.964;2023-03-01T08:36:39;4.20;1.00
28614;DHT22;15806;53.548;9.964;2023-03-01T08:38:19;4.30;1.00
28614;DHT22;15806;53.548;9.964;2023-03-01T08:40:00;4.50;1.00
28614;DHT22;15806;53.548;9.964;2023-03-01T08:41:41;4.60;1.00
28614;DHT22;15806;53.548;9.964;2023-03-01T08:43:22;4.80;1.00
28614;DHT22;15806;53.548;9.964;2023-03-01T08:45:03;4.80;1.00
28614;DHT22;15806;53.548;9.964;2023-03-01T08:46:44;4.90;1.00
28614;DHT22;15806;53.548;9.964;2023-03-01T08:48:27;4.90;1.00
28614;DHT22;15806;53.548;9.964;2023-03-01T08:50:08;5.00;1.00
28614;DHT22;15806;53.548;9.964;2023-03-01T08:51:48;4.90;1.00
28614;DHT22;15806;53.548;9.964;2023-03-01T08:53:29;4.90;1.00
28614;DHT22;15806;53.548;9.964;2023-03-01T08:55:09;5.00;1.00
28614;DHT22;15806;53.548;9.964;2023-03-01T08:56:50;4.80;1.00
28614;DHT22;15806;53.548;9.964;2023-03-01T08:58:31;5.00;1.00
28614;DHT22;15806;53.548;9.964;2023-03-01T09:00:12;5.10;1.00
28614;DHT22;15806;53.548;9.964;2023-03-01T09:01:52;5.00;1.00
28614;DHT22;15806;53.548;9.964;2023-03-01T09:03:33;4.80;1.00
28614;DHT22;15806;53.548;9.964;2023-03-01T09:05:13;4.60;1.00
28614;DHT22;15806;53.548;9.964;2023-03-01T09:06:54;4.50;1.00
28614;DHT22;15806;53.548;9.964;2023-03-01T09:08:36;4.20;1.00
28614;DHT22;15806;53.548;9.964;2023-03-01T09:10:17;4.20;1.00
28614;DHT22;15806;53.548;9.964;2023-03-01T09:11:58;4.10;1.00
28614;DHT22;15806;53.548;9.964;2023-03-01T09:13:39;4.00;1.00
28614;DHT22;15806;53.548;9.964;2023-03-01T09:15:19;4.00;1.00
28614;DHT22;15806;53.548;9.964;2023-03-01T09:17:00;4.10;1.00
28614;DHT22;15806;53.548;9.964;2023-03-01T09:18:40;4.10;1.00
28614;DHT22;15806;53.548;9.964;2023-03-01T09:20:21;4.10;1.00
28614;DHT22;15806;53.548;9.964;2023-03-01T09:22:03;4.20;1.00
28614;DHT22;15806;53.548;9.964;2023-03-01T09:23:45;4.50;1.00
28614;DHT22;15806;53.548;9.964;2023-03-01T09:25:27;4.70;1.00
28614;DHT22;15806;53.548;9.964;2023-03-01T09:27:07;4.90;1.00
28614;DHT22;15806;53.548;9.964;2023-03-01T09:28:53;5.10;1.00
28614;DHT22;15806;53.548;9.964;2023-03-01T09:30:34;5.20;1.00
28614;DHT22;15806;53.548;9.964;2023-03-01T09:32:14;4.70;1.00
28614;DHT22;15806;53.548;9.964;2023-03-01T09:33:55;4.60;1.00
28614;DHT22;15806;53.548;9.964;2023-03-01T09:35:36;4.40;1.00
28614;DHT22;15806;53.548;9.964;2023-03-01T09:37:16;4.30;1.00
28614;DHT22;15806;53.548;9.964;2023-03-01T09:39:00;4.30;1.00
28614;DHT22;15806;53.548;9.964;2023-03-01T09:40:44;4.50;1.00
28614;DHT22;15806;53.548;9.964;2023-03-01T09:42:25;4.80;1.00
28614;DHT22;15806;53.548;9.964;2023-03-01T09:44:20;5.10;1.00
28614;DHT22;15806;53.548;9.964;2023-03-01T09:46:05;5.40;1.00
28614;DHT22;15806;53.548;9.964;2023-03-01T09:47:46;5.80;1.00
28614;DHT22;15806;53.548;9.964;2023-03-01T09:49:33;6.00;1.00
28614;DHT22;15806;53.548;9.964;2023-03-01T09:51:32;6.10;1.00
28614;DHT22;15806;53.548;9.964;2023-03-01T09:53:19;6.30;1.00
28614;DHT22;15806;53.548;9.964;2023-03-01T09:55:00;6.20;1.00
28614;DHT22;15806;53.548;9.964;2023-03-01T09:56:46;6.20;1.00
28614;DHT22;15806;53.548;9.964;2023-03-01T09:58:47;6.20;1.00
28614;DHT22;15806;53.548;9.964;2023-03-01T10:00:44;6.10;1.00
28614;DHT22;15806;53.548;9.964;2023-03-01T10:09:43;5.90;1.00
28614;DHT22;15806;53.548;9.964;2023-03-01T10:11:32;5.80;1.00
28614;DHT22;15806;53.548;9.964;2023-03-01T10:15:29;5.90;1.00
28614;DHT22;15806;53.548;9.964;2023-03-01T10:19:00;6.00;1.00
28614;DHT22;15806;53.548;9.964;2023-03-01T10:21:02;6.00;1.00
28614;DHT22;15806;53.548;9.964;2023-03-01T10:22:43;6.10;1.00
28614;DHT22;15806;53.548;9.964;2023-03-01T10:24:23;6.30;1.00
28614;DHT22;15806;53.548;9.964;2023-03-01T10:31:59;6.40;1.00
28614;DHT22;15806;53.548;9.964;2023-03-01T10:33:41;6.50;1.00
28614;DHT22;15806;53.548;9.964;2023-03-01T10:35:24;6.50;1.00
28614;DHT22;15806;53.548;9.964;2023-03-01T10:37:12;6.70;1.00
28614;DHT22;15806;53.548;9.964;2023-03-01T10:38:55;6.70;1.00
28614;DHT22;15806;53.548;9.964;2023-03-01T10:40:53;6.70;1.00
28614;DHT22;15806;53.548;9.964;2023-03-01T10:42:38;6.70;1.00
28614;DHT22;15806;53.548;9.964;2023-03-01T10:44:43;6.80;1.00
28614;DHT22;15806;53.548;9.964;2023-03-01T10:46:36;7.00;1.00
28614;DHT22;15806;53.548;9.964;2023-03-01T10:48:25;7.00;1.00
28614;DHT22;15806;53.548;9.964;2023-03-01T10:50:21;7.20;1.00
28614;DHT22;15806;53.548;9.964;2023-03-01T10:52:21;7.20;1.00
28614;DHT22;15806;53.548;9.964;2023-03-01T10:54:09;7.10;1.00
28614;DHT22;15806;53.548;9.964;2023-03-01T10:56:10;7.00;1.00
28614;DHT22;15806;53.548;9.964;2023-03-01T10:58:15;6.80;1.00
28614;DHT22;15806;53.548;9.964;2023-03-01T11:00:24;6.70;1.00
28614;DHT22;15806;53.548;9.964;2023-03-01T11:04:08;6.60;1.00
28614;DHT22;15806;53.548;9.964;2023-03-01T11:07:55;6.80;1.00
28614;DHT22;15806;53.548;9.964;2023-03-01T11:09:36;6.70;1.00
28614;DHT22;15806;53.548;9.964;2023-03-01T11:11:35;6.70;1.00
28614;DHT22;15806;53.548;9.964;2023-03-01T11:13:18;6.70;1.00
28614;DHT22;15806;53.548;9.964;2023-03-01T11:14:59;6.80;1.00
28614;DHT22;15806;53.548;9.964;2023-03-01T11:16:41;6.80;1.00
28614;DHT22;15806;53.548;9.964;2023-03-01T11:18:22;6.90;1.00
28614;DHT22;15806;53.548;9.964;2023-03-01T11:22:18;7.00;1.00
28614;DHT22;15806;53.548;9.964;2023-03-01T11:24:01;7.00;1.00
28614;DHT22;15806;53.548;9.964;2023-03-01T11:25:54;7.10;1.00
28614;DHT22;15806;53.548;9.964;2023-03-01T11:27:43;7.10;1.00
28614;DHT22;15806;53.548;9.964;2023-03-01T11:31:14;7.80;1.00
28614;DHT22;15806;53.548;9.964;2023-03-01T11:35:10;10.80;1.00
28614;DHT22;15806;53.548;9.964;2023-03-01T11:36:59;12.40;1.00
28614;DHT22;15806;53.548;9.964;2023-03-01T11:38:42;14.00;1.00
28614;DHT22;15806;53.548;9.964;2023-03-01T11:40:32;15.20;1.00
28614;DHT22;15806;53.548;9.964;2023-03-01T11:42:31;16.20;99.90